Time;durP1;ratioP1;P1;durP2;ratioP2;P2;SDS_P1;SDS_P2;PMS_P1;PMS_P2;Temp;Humidity;BMP_temperature;BMP_pressure;BME280_temperature;BME280_humidity;BME280_pressure;Samples;Min_cycle;Max_cycle;Signal;HPM_P1;HPM_P2
2022/04/26 03:37:23;;;;;;;;;;;;;;;8.64;100.00;99539.25;5095763;28;19931;-79
2022/04/26 03:39:50;;;;;;;;;;;;;;;8.55;100.00;99535.28;5095797;28;20363;-79
2022/04/26 03:42:17;;;;;;;;;;;;;;;8.68;100.00;99537.25;5095846;28;19924;-79
2022/04/26 03:44:44;;;;;;;;;;;;;;;8.97;100.00;99538.81;5095822;28;20019;-77
2022/04/26 03:47:12;;;;;;;;;;;;;;;9.07;100.00;99537.97;5095878;28;19924;-79
2022/04/26 03:49:39;;;;;;;;;;;;;;;9.19;100.00;99533.97;5095704;28;19931;-77
2022/04/26 03:52:07;;;;;;;;;;;;;;;9.10;100.00;99531.59;5096298;28;19931;-79
2022/04/26 03:54:35;;;;;;;;;;;;;;;8.37;100.00;99538.09;5095501;28;19928;-79
2022/04/26 03:57:02;;;;;;;;;;;;;;;8.60;100.00;99541.22;5096476;28;19924;-79
2022/04/26 03:59:29;;;;;;;;;;;;;;;8.75;100.00;99537.25;5096651;28;20038;-79
2022/04/26 04:01:56;;;;;;;;;;;;;;;9.19;100.00;99534.75;5096690;28;19963;-80
2022/04/26 04:04:23;;;;;;;;;;;;;;;8.92;100.00;99535.66;5096638;28;19931;-77
2022/04/26 04:06:50;;;;;;;;;;;;;;;9.03;100.00;99528.03;5095469;28;19977;-79
2022/04/26 04:09:17;;;;;;;;;;;;;;;8.89;100.00;99528.09;5095557;28;19963;-79
2022/04/26 04:11:45;;;;;;;;;;;;;;;9.34;100.00;99529.94;5078290;28;19924;-77
2022/04/26 04:14:14;;;;;;;;;;;;;;;9.46;100.00;99523.13;5095413;28;20304;-77
2022/04/26 04:16:45;;;;;;;;;;;;;;;9.65;100.00;99528.22;5096413;28;20069;-77
2022/04/26 04:19:18;;;;;;;;;;;;;;;9.78;100.00;99526.56;5096240;28;19928;-77
2022/04/26 04:21:46;;;;;;;;;;;;;;;9.87;100.00;99522.13;5095416;28;19966;-77
2022/04/26 04:24:13;;;;;;;;;;;;;;;9.87;100.00;99529.69;5096231;28;20426;-77
2022/04/26 04:26:41;;;;;;;;;;;;;;;9.75;100.00;99530.16;5095661;28;19924;-77
2022/04/26 04:29:08;;;;;;;;;;;;;;;9.74;100.00;99534.16;5095151;28;19964;-77
2022/04/26 04:31:35;;;;;;;;;;;;;;;9.79;100.00;99533.72;5096098;28;19924;-77
2022/04/26 04:34:02;;;;;;;;;;;;;;;9.69;100.00;99545.72;5094782;28;20321;-77
2022/04/26 04:36:30;;;;;;;;;;;;;;;9.87;100.00;99540.84;5096147;28;19978;-77
2022/04/26 04:38:57;;;;;;;;;;;;;;;9.75;100.00;99544.09;5094553;28;19977;-77
2022/04/26 04:41:24;;;;;;;;;;;;;;;9.20;100.00;99546.72;5090237;28;20451;-80
2022/04/26 04:43:52;;;;;;;;;;;;;;;9.41;100.00;99543.03;5094412;28;19924;-79
2022/04/26 04:46:19;;;;;;;;;;;;;;;9.26;100.00;99544.28;5094792;28;19924;-77
2022/04/26 04:48:46;;;;;;;;;;;;;;;9.04;100.00;99555.50;5075486;28;19935;-77
2022/04/26 04:51:13;;;;;;;;;;;;;;;9.38;100.00;99552.22;5091281;28;20026;-80
2022/04/26 04:53:40;;;;;;;;;;;;;;;9.31;100.00;99553.06;5074499;28;19975;-79
2022/04/26 04:56:08;;;;;;;;;;;;;;;8.82;100.00;99553.16;5075350;28;19951;-79
2022/04/26 04:58:35;;;;;;;;;;;;;;;8.55;100.00;99558.38;5075764;28;20401;-79
2022/04/26 05:01:02;;;;;;;;;;;;;;;8.49;100.00;99561.94;5094579;28;19935;-79
2022/04/26 05:03:29;;;;;;;;;;;;;;;8.61;100.00;99567.91;5094297;28;19928;-79
2022/04/26 05:05:56;;;;;;;;;;;;;;;8.82;100.00;99573.47;5095594;28;19928;-79
2022/04/26 05:08:24;;;;;;;;;;;;;;;8.76;100.00;99572.28;5095409;28;19953;-79
2022/04/26 05:10:52;;;;;;;;;;;;;;;8.58;100.00;99582.63;5095314;28;19931;-78
2022/04/26 05:13:19;;;;;;;;;;;;;;;8.72;100.00;99582.63;5092083;28;19939;-79
2022/04/26 05:15:47;;;;;;;;;;;;;;;8.75;100.00;99584.59;5093601;28;20283;-79
2022/04/26 05:18:14;;;;;;;;;;;;;;;8.77;100.00;99573.88;5094792;28;19924;-79
2022/04/26 05:20:42;;;;;;;;;;;;;;;8.95;100.00;99585.78;5093876;28;20052;-79
2022/04/26 05:25:56;;;;;;;;;;;;;;;8.62;100.00;99600.13;5096661;28;19924;-78
2022/04/26 05:28:23;;;;;;;;;;;;;;;8.58;100.00;99602.13;5097041;28;20434;-78
2022/04/26 05:30:51;;;;;;;;;;;;;;;8.54;100.00;99606.88;5095405;28;19928;-78
2022/04/26 05:33:18;;;;;;;;;;;;;;;8.74;100.00;99602.53;5097404;28;19924;-78
2022/04/26 05:35:45;;;;;;;;;;;;;;;9.05;100.00;99606.50;5094452;28;19942;-79
2022/04/26 05:38:12;;;;;;;;;;;;;;;9.07;100.00;99601.31;5093787;28;20031;-79
2022/04/26 05:40:39;;;;;;;;;;;;;;;9.16;100.00;99602.47;5094689;28;19931;-79
2022/04/26 05:43:07;;;;;;;;;;;;;;;8.88;100.00;99610.09;5095231;28;20269;-79
2022/04/26 05:45:34;;;;;;;;;;;;;;;9.07;100.00;99613.25;5095091;28;19924;-79
2022/04/26 05:48:04;;;;;;;;;;;;;;;9.03;100.00;99612.47;5094257;28;19928;-79
2022/04/26 05:50:31;;;;;;;;;;;;;;;8.91;100.00;99614.84;5092264;28;19963;-78
2022/04/26 05:52:58;;;;;;;;;;;;;;;9.10;100.00;99609.66;5094678;28;20438;-79
2022/04/26 05:55:25;;;;;;;;;;;;;;;9.10;100.00;99612.44;5093379;28;20516;-78
2022/04/26 05:57:52;;;;;;;;;;;;;;;9.42;100.00;99614.38;5093485;28;19924;-78
2022/04/26 06:00:19;;;;;;;;;;;;;;;9.23;100.00;99617.59;5092669;28;20019;-78
2022/04/26 06:05:12;;;;;;;;;;;;;;;9.37;100.00;99623.16;5092523;28;19924;-78
2022/04/26 06:07:39;;;;;;;;;;;;;;;9.14;100.00;99626.38;5092754;28;19924;-77
2022/04/26 06:10:07;;;;;;;;;;;;;;;9.05;100.00;99631.56;5094274;28;19931;-78
2022/04/26 06:12:35;;;;;;;;;;;;;;;9.18;100.00;99627.16;5093178;28;19931;-77
2022/04/26 06:15:04;;;;;;;;;;;;;;;9.31;100.00;99630.34;5094198;28;19924;-78
2022/04/26 06:17:32;;;;;;;;;;;;;;;9.15;100.00;99631.56;5094107;27;19924;-77
2022/04/26 06:19:59;;;;;;;;;;;;;;;9.48;100.00;99640.66;5093924;28;19924;-78
2022/04/26 06:22:26;;;;;;;;;;;;;;;9.85;100.00;99638.13;5092509;28;19924;-79
2022/04/26 06:24:54;;;;;;;;;;;;;;;10.08;100.00;99642.06;5092921;28;19928;-78
2022/04/26 06:27:22;;;;;;;;;;;;;;;10.29;100.00;99638.34;5094095;28;20010;-79
2022/04/26 06:29:49;;;;;;;;;;;;;;;10.28;100.00;99645.97;5093987;28;19924;-79
2022/04/26 06:32:16;;;;;;;;;;;;;;;10.25;100.00;99640.38;5094030;28;19928;-78
2022/04/26 06:34:43;;;;;;;;;;;;;;;10.21;100.00;99642.38;5092550;28;19928;-78
2022/04/26 06:37:12;;;;;;;;;;;;;;;10.86;100.00;99642.34;5085078;28;19924;-78
2022/04/26 06:39:40;;;;;;;;;;;;;;;10.58;100.00;99643.38;5072441;28;19925;-78
2022/04/26 06:42:08;;;;;;;;;;;;;;;10.36;100.00;99646.72;5108109;28;19931;-78
2022/04/26 06:44:36;;;;;;;;;;;;;;;9.70;100.00;99653.34;5093886;28;19970;-78
2022/04/26 06:47:03;;;;;;;;;;;;;;;9.92;100.00;99650.06;5075896;28;19931;-78
2022/04/26 06:49:30;;;;;;;;;;;;;;;9.92;100.00;99654.88;5093405;28;20379;-78
2022/04/26 06:51:57;;;;;;;;;;;;;;;10.00;100.00;99659.22;5080172;28;19959;-78
2022/04/26 06:54:24;;;;;;;;;;;;;;;9.80;100.00;99658.13;5097994;28;20006;-78
2022/04/26 06:56:51;;;;;;;;;;;;;;;9.71;100.00;99660.53;5098136;28;19924;-77
2022/04/26 06:59:19;;;;;;;;;;;;;;;9.72;100.00;99662.13;5095146;28;19924;-78
2022/04/26 07:01:52;;;;;;;;;;;;;;;9.69;100.00;99658.16;5096819;28;19924;-78
2022/04/26 07:04:20;;;;;;;;;;;;;;;9.52;100.00;99663.75;5097514;28;19947;-78
2022/04/26 07:06:48;;;;;;;;;;;;;;;9.37;100.00;99668.59;5096664;28;19924;-78
2022/04/26 07:09:15;;;;;;;;;;;;;;;9.30;100.00;99667.81;5097480;28;19970;-78
2022/04/26 07:11:46;;;;;;;;;;;;;;;9.52;100.00;99675.72;5096417;28;19924;-78
2022/04/26 07:14:13;;;;;;;;;;;;;;;9.72;100.00;99667.69;5097574;28;19927;-78
2022/04/26 07:16:42;;;;;;;;;;;;;;;10.04;100.00;99673.97;5097566;28;19924;-78
2022/04/26 07:19:09;;;;;;;;;;;;;;;10.38;100.00;99667.44;5097066;28;19930;-78
2022/04/26 07:21:36;;;;;;;;;;;;;;;9.90;100.00;99668.44;5096469;28;19931;-77
2022/04/26 07:24:16;;;;;;;;;;;;;;;10.02;100.00;99671.59;5097615;28;19924;-82
2022/04/26 07:26:43;;;;;;;;;;;;;;;9.71;100.00;99680.84;5096628;28;20012;-80
2022/04/26 07:29:14;;;;;;;;;;;;;;;9.79;100.00;99673.25;5130660;27;19930;-80
2022/04/26 07:31:41;;;;;;;;;;;;;;;10.03;100.00;99678.75;5096693;28;19924;-80
2022/04/26 07:34:21;;;;;;;;;;;;;;;10.62;100.00;99680.47;5097360;28;19931;-80
2022/04/26 07:36:59;;;;;;;;;;;;;;;10.92;100.00;99671.44;5097662;28;20054;-81
2022/04/26 07:39:26;;;;;;;;;;;;;;;11.10;100.00;99682.50;5096067;28;20371;-81
2022/04/26 07:41:54;;;;;;;;;;;;;;;10.45;100.00;99678.56;5096022;28;19935;-80
2022/04/26 07:44:21;;;;;;;;;;;;;;;10.46;100.00;99674.59;5097824;28;19931;-81
2022/04/26 07:46:49;;;;;;;;;;;;;;;10.54;100.00;99687.28;5096893;28;19924;-80
2022/04/26 07:49:19;;;;;;;;;;;;;;;10.29;100.00;99680.25;5078935;28;19930;-80
2022/04/26 07:51:46;;;;;;;;;;;;;;;9.91;100.00;99683.97;5112898;28;20374;-80
2022/04/26 07:54:15;;;;;;;;;;;;;;;10.45;100.00;99683.38;5118292;28;19928;-80
2022/04/26 07:56:42;;;;;;;;;;;;;;;10.41;100.00;99688.16;5102647;28;19935;-80
2022/04/26 07:59:10;;;;;;;;;;;;;;;10.43;100.00;99688.56;5100270;28;19924;-78
2022/04/26 08:01:37;;;;;;;;;;;;;;;9.92;100.00;99700.31;5136041;27;20013;-81
2022/04/26 08:04:04;;;;;;;;;;;;;;;10.21;100.00;99707.41;5079176;28;19963;-81
2022/04/26 08:06:31;;;;;;;;;;;;;;;10.22;100.00;99708.22;5095708;28;20027;-81
2022/04/26 08:08:58;;;;;;;;;;;;;;;10.25;100.00;99707.41;5096932;28;19924;-81
2022/04/26 08:11:28;;;;;;;;;;;;;;;10.31;100.00;99716.97;5097332;28;19931;-81
2022/04/26 08:13:55;;;;;;;;;;;;;;;10.53;100.00;99722.03;5095991;28;19924;-81
2022/04/26 08:16:23;;;;;;;;;;;;;;;10.67;100.00;99719.16;5096690;28;20023;-81
2022/04/26 08:18:50;;;;;;;;;;;;;;;11.19;100.00;99714.41;5078889;28;19924;-80
2022/04/26 08:21:17;;;;;;;;;;;;;;;10.54;100.00;99720.06;5089333;28;19924;-75
2022/04/26 08:29:17;;;;;;;;;;;;;;;10.35;100.00;99720.53;5091201;28;19974;-74
2022/04/26 08:32:10;;;;;;;;;;;;;;;10.27;100.00;99721.78;5090332;28;19932;-75
2022/04/26 08:34:37;;;;;;;;;;;;;;;10.78;100.00;99733.06;5092615;28;19924;-75
2022/04/26 08:37:04;;;;;;;;;;;;;;;10.78;100.00;99725.47;5091782;28;19928;-74
2022/04/26 08:39:31;;;;;;;;;;;;;;;10.98;100.00;99723.75;5092555;28;20378;-76
2022/04/26 08:41:59;;;;;;;;;;;;;;;11.70;100.00;99721.94;5092206;27;19930;-76
2022/04/26 08:44:27;;;;;;;;;;;;;;;11.17;100.00;99730.78;5107533;28;20371;-77
2022/04/26 08:52:27;;;;;;;;;;;;;;;11.74;100.00;99734.69;5091662;28;19932;-75
2022/04/26 08:54:54;;;;;;;;;;;;;;;11.80;100.00;99735.84;5091848;28;19967;-76
2022/04/26 08:57:21;;;;;;;;;;;;;;;11.82;100.00;99733.44;5092325;28;20459;-75
2022/04/26 08:59:49;;;;;;;;;;;;;;;11.67;100.00;99731.97;5090962;28;20037;-75
2022/04/26 09:02:18;;;;;;;;;;;;;;;11.90;100.00;99734.94;5091335;28;19928;-76
2022/04/26 09:04:45;;;;;;;;;;;;;;;11.59;100.00;99733.22;5092240;28;19966;-75
2022/04/26 09:07:27;;;;;;;;;;;;;;;12.51;100.00;99725.38;5091578;28;19970;-76
2022/04/26 09:10:03;;;;;;;;;;;;;;;11.94;100.00;99730.09;5090832;28;19924;-74
2022/04/26 09:12:31;;;;;;;;;;;;;;;12.20;100.00;99723.78;5091506;28;19936;-75
2022/04/26 09:15:12;;;;;;;;;;;;;;;12.92;100.00;99732.84;5088409;28;19924;-75
2022/04/26 09:17:41;;;;;;;;;;;;;;;13.23;100.00;99720.34;5091194;28;20319;-75
2022/04/26 09:20:09;;;;;;;;;;;;;;;13.36;100.00;99727.75;5091667;28;20031;-75
2022/04/26 09:23:01;;;;;;;;;;;;;;;13.54;100.00;99722.63;5081720;28;19924;-75
2022/04/26 09:25:28;;;;;;;;;;;;;;;13.42;100.00;99720.41;5086215;28;19932;-76
2022/04/26 09:27:59;;;;;;;;;;;;;;;12.78;100.00;99729.00;5071631;28;19993;-75
2022/04/26 09:30:29;;;;;;;;;;;;;;;13.34;100.00;99732.19;5070983;28;19958;-76
2022/04/26 09:32:58;;;;;;;;;;;;;;;13.20;100.00;99724.00;5083179;28;19924;-75
2022/04/26 09:35:29;;;;;;;;;;;;;;;13.34;100.00;99733.00;5091746;28;19932;-80
2022/04/26 09:37:57;;;;;;;;;;;;;;;13.18;100.00;99732.03;5076499;28;19924;-82
2022/04/26 09:40:28;;;;;;;;;;;;;;;13.32;100.00;99729.03;5094525;28;19928;-81
2022/04/26 09:42:56;;;;;;;;;;;;;;;13.91;100.00;99729.97;5093092;28;20295;-83
2022/04/26 09:45:23;;;;;;;;;;;;;;;13.54;100.00;99730.25;5059939;28;19963;-81
2022/04/26 09:47:51;;;;;;;;;;;;;;;13.85;100.00;99726.06;5094867;28;19931;-82
2022/04/26 09:50:18;;;;;;;;;;;;;;;13.58;100.00;99728.19;5077260;28;19928;-82
2022/04/26 09:52:45;;;;;;;;;;;;;;;13.02;100.00;99726.28;5093664;28;20454;-80
2022/04/26 09:55:13;;;;;;;;;;;;;;;13.19;100.00;99728.03;5093613;28;20268;-81
2022/04/26 09:57:43;;;;;;;;;;;;;;;13.42;100.00;99728.06;5094436;28;20019;-80
2022/04/26 10:00:11;;;;;;;;;;;;;;;13.33;100.00;99747.47;5093622;28;20430;-83
2022/04/26 10:02:46;;;;;;;;;;;;;;;13.43;100.00;99733.25;5110423;28;19924;-82
2022/04/26 10:05:14;;;;;;;;;;;;;;;13.56;100.00;99725.00;5077185;28;19974;-83
2022/04/26 10:07:46;;;;;;;;;;;;;;;14.10;100.00;99729.22;5093748;28;19924;-83
2022/04/26 10:10:14;;;;;;;;;;;;;;;13.50;100.00;99729.50;5093890;28;20311;-82
2022/04/26 10:13:31;;;;;;;;;;;;;;;14.14;100.00;99729.94;5093147;28;19997;-83
2022/04/26 10:15:29;;;;;;;;;;;;;;;14.44;100.00;99726.94;5094432;28;19966;-83
2022/04/26 10:17:56;;;;;;;;;;;;;;;13.95;100.00;99725.09;5094604;28;19924;-83
2022/04/26 10:20:39;;;;;;;;;;;;;;;13.98;100.00;99727.03;5093657;28;19930;-83
2022/04/26 10:23:06;;;;;;;;;;;;;;;13.23;100.00;99726.75;5092328;28;19997;-83
2022/04/26 10:25:37;;;;;;;;;;;;;;;13.53;100.00;99723.03;5089782;28;20387;-83
2022/04/26 10:28:16;;;;;;;;;;;;;;;13.59;100.00;99726.94;5091169;28;20306;-83
2022/04/26 10:30:50;;;;;;;;;;;;;;;13.58;100.00;99725.38;5076163;28;19928;-81
2022/04/26 10:33:36;;;;;;;;;;;;;;;13.11;100.00;99735.78;5094130;28;19924;-78
2022/04/26 10:36:19;;;;;;;;;;;;;;;13.62;100.00;99726.88;5126693;27;20201;-78
2022/04/26 10:39:05;;;;;;;;;;;;;;;13.78;100.00;99727.00;5094214;28;19924;-80
2022/04/26 10:41:34;;;;;;;;;;;;;;;14.59;100.00;99718.97;5093958;28;20379;-80
2022/04/26 10:44:31;;;;;;;;;;;;;;;14.28;100.00;99710.78;5091944;28;20361;-79
2022/04/26 10:47:02;;;;;;;;;;;;;;;14.14;100.00;99699.00;5093233;28;19954;-80
2022/04/26 10:49:32;;;;;;;;;;;;;;;14.72;100.00;99698.19;5092688;28;19936;-80
2022/04/26 10:52:24;;;;;;;;;;;;;;;14.71;100.00;99702.22;5094108;28;20407;-80
2022/04/26 10:55:01;;;;;;;;;;;;;;;15.22;100.00;99698.59;5094377;28;20023;-80
2022/04/26 10:57:30;;;;;;;;;;;;;;;14.52;100.00;99699.44;5094093;28;19924;-80
2022/04/26 10:59:57;;;;;;;;;;;;;;;13.91;100.00;99710.31;5093834;28;20331;-80
2022/04/26 11:02:25;;;;;;;;;;;;;;;14.50;100.00;99711.13;5092826;28;19924;-80
2022/04/26 11:05:10;;;;;;;;;;;;;;;14.64;100.00;99710.84;5093839;28;20287;-80
2022/04/26 11:07:41;;;;;;;;;;;;;;;13.77;100.00;99716.19;5094086;28;19969;-80
2022/04/26 11:10:09;;;;;;;;;;;;;;;13.48;100.00;99709.50;5092474;28;19931;-79
2022/04/26 11:12:38;;;;;;;;;;;;;;;13.68;100.00;99713.16;5092320;28;20280;-79
2022/04/26 11:15:10;;;;;;;;;;;;;;;14.45;100.00;99706.00;5092735;28;19948;-80
2022/04/26 11:17:40;;;;;;;;;;;;;;;14.29;100.00;99708.78;5088727;28;19978;-76
2022/04/26 11:20:12;;;;;;;;;;;;;;;14.40;100.00;99710.13;5102044;28;19924;-77
2022/04/26 11:22:46;;;;;;;;;;;;;;;14.36;100.00;99703.00;5070269;28;19974;-77
2022/04/26 11:28:02;;;;;;;;;;;;;;;13.64;100.00;99702.00;5102325;28;19925;-77
2022/04/26 11:30:36;;;;;;;;;;;;;;;13.66;100.00;99707.94;5077856;28;19925;-76
2022/04/26 11:33:04;;;;;;;;;;;;;;;13.39;100.00;99707.25;5090045;28;19924;-75
2022/04/26 11:35:34;;;;;;;;;;;;;;;13.64;100.00;99706.81;5088033;28;19931;-78
2022/04/26 11:38:06;;;;;;;;;;;;;;;13.86;100.00;99702.38;5092186;28;20425;-75
2022/04/26 11:40:41;;;;;;;;;;;;;;;13.95;100.00;99699.81;5092299;28;19924;-77
2022/04/26 11:43:09;;;;;;;;;;;;;;;14.34;100.00;99705.47;5092273;28;19924;-76
2022/04/26 11:45:36;;;;;;;;;;;;;;;14.90;100.00;99700.59;5090645;28;19930;-79
2022/04/26 11:48:07;;;;;;;;;;;;;;;14.54;100.00;99697.78;5091547;28;19925;-79
2022/04/26 11:50:34;;;;;;;;;;;;;;;14.23;100.00;99696.41;5093872;28;20014;-79
2022/04/26 11:53:04;;;;;;;;;;;;;;;14.32;100.00;99705.91;5092699;27;19935;-79
2022/04/26 11:55:32;;;;;;;;;;;;;;;14.76;100.00;99698.91;5090051;28;19963;-78
2022/04/26 11:58:09;;;;;;;;;;;;;;;14.92;100.00;99704.53;5095179;28;19934;-78
2022/04/26 12:00:48;;;;;;;;;;;;;;;14.54;100.00;99711.84;5094223;28;19931;-77
2022/04/26 12:03:16;;;;;;;;;;;;;;;13.99;100.00;99709.75;5094133;28;19928;-77
2022/04/26 12:05:43;;;;;;;;;;;;;;;14.37;100.00;99721.47;5094162;28;19924;-77
2022/04/26 12:08:11;;;;;;;;;;;;;;;14.72;100.00;99717.09;5093861;28;20018;-77
2022/04/26 12:10:39;;;;;;;;;;;;;;;14.65;100.00;99709.59;5093786;28;20007;-77
2022/04/26 12:13:06;;;;;;;;;;;;;;;15.03;100.00;99719.16;5096386;28;20329;-78
2022/04/26 12:15:34;;;;;;;;;;;;;;;15.56;100.00;99713.06;5095368;28;19925;-77
2022/04/26 12:18:03;;;;;;;;;;;;;;;15.01;100.00;99704.72;5096318;28;20306;-78
2022/04/26 12:20:30;;;;;;;;;;;;;;;14.74;100.00;99706.97;5094114;28;19924;-77
2022/04/26 12:22:57;;;;;;;;;;;;;;;15.41;100.00;99711.84;5096004;28;20399;-78
2022/04/26 12:25:24;;;;;;;;;;;;;;;14.93;100.00;99705.34;5095230;28;19924;-77
2022/04/26 12:28:21;;;;;;;;;;;;;;;15.62;100.00;99696.41;5112209;27;20386;-78
2022/04/26 12:30:48;;;;;;;;;;;;;;;15.41;100.00;99700.56;5091692;28;20027;-78
2022/04/26 12:33:25;;;;;;;;;;;;;;;15.15;100.00;99703.59;5094830;28;20027;-78
2022/04/26 12:36:03;;;;;;;;;;;;;;;14.99;100.00;99712.03;5095782;28;19927;-79
2022/04/26 12:38:30;;;;;;;;;;;;;;;15.85;100.00;99708.25;5095790;28;20379;-78
2022/04/26 12:41:02;;;;;;;;;;;;;;;15.62;100.00;99700.00;5089367;28;19934;-78
2022/04/26 12:43:29;;;;;;;;;;;;;;;15.55;100.00;99710.69;5089600;28;19977;-77
2022/04/26 12:46:02;;;;;;;;;;;;;;;14.71;100.00;99707.84;5110992;28;19930;-77
2022/04/26 12:51:24;;;;;;;;;;;;;;;15.75;100.00;99712.13;5093716;28;19924;-77
2022/04/26 12:54:06;;;;;;;;;;;;;;;15.17;100.00;99710.41;5094797;28;19969;-77
2022/04/26 12:56:33;;;;;;;;;;;;;;;15.49;100.00;99706.81;5093623;28;19931;-76
2022/04/26 12:59:00;;;;;;;;;;;;;;;15.06;100.00;99700.59;5093531;28;19924;-76
2022/04/26 13:01:29;;;;;;;;;;;;;;;14.98;100.00;99699.97;5095437;28;20283;-76
2022/04/26 13:03:58;;;;;;;;;;;;;;;15.34;100.00;99700.69;5095394;28;19928;-77
2022/04/26 13:06:25;;;;;;;;;;;;;;;15.11;100.00;99698.06;5095145;28;19928;-75
2022/04/26 13:09:02;;;;;;;;;;;;;;;15.83;100.00;99699.44;5095525;28;19927;-75
2022/04/26 13:11:32;;;;;;;;;;;;;;;15.28;100.00;99696.81;5094085;28;19924;-75
2022/04/26 13:13:59;;;;;;;;;;;;;;;15.21;100.00;99702.66;5093874;28;19977;-75
2022/04/26 13:16:26;;;;;;;;;;;;;;;15.65;100.00;99704.75;5093753;28;19924;-78
2022/04/26 13:18:53;;;;;;;;;;;;;;;16.07;100.00;99694.34;5094894;28;19967;-75
2022/04/26 13:21:20;;;;;;;;;;;;;;;15.80;100.00;99697.50;5093254;28;19924;-75
2022/04/26 13:23:47;;;;;;;;;;;;;;;15.96;100.00;99694.66;5093825;28;19924;-75
2022/04/26 13:26:14;;;;;;;;;;;;;;;15.64;100.00;99689.09;5094938;28;20363;-75
2022/04/26 13:28:41;;;;;;;;;;;;;;;16.08;100.00;99688.25;5095065;28;19924;-75
2022/04/26 13:31:08;;;;;;;;;;;;;;;16.61;100.00;99677.50;5095177;28;20440;-75
2022/04/26 13:33:35;;;;;;;;;;;;;;;16.98;100.00;99676.72;5095038;28;19964;-75
2022/04/26 13:36:02;;;;;;;;;;;;;;;16.85;100.00;99662.63;5094872;28;19931;-76
2022/04/26 13:38:29;;;;;;;;;;;;;;;16.78;100.00;99662.06;5094918;28;19924;-75
2022/04/26 13:40:59;;;;;;;;;;;;;;;16.04;100.00;99670.66;5094792;28;19924;-74
2022/04/26 13:43:26;;;;;;;;;;;;;;;15.12;100.00;99670.69;5094792;28;19932;-76
2022/04/26 13:46:13;;;;;;;;;;;;;;;15.42;100.00;99673.97;5094848;28;19924;-76
2022/04/26 13:48:40;;;;;;;;;;;;;;;15.90;100.00;99679.50;5093377;28;20029;-76
2022/04/26 13:51:07;;;;;;;;;;;;;;;16.02;100.00;99675.94;5076341;28;20275;-76
2022/04/26 13:53:34;;;;;;;;;;;;;;;15.93;100.00;99675.03;5093374;28;20003;-76
2022/04/26 13:56:06;;;;;;;;;;;;;;;15.53;100.00;99674.50;5127467;27;19924;-76
2022/04/26 13:58:33;;;;;;;;;;;;;;;16.13;100.00;99673.63;5094758;28;19924;-77
2022/04/26 14:01:00;;;;;;;;;;;;;;;15.98;100.00;99677.28;5093068;28;19924;-73
2022/04/26 14:03:27;;;;;;;;;;;;;;;16.28;100.00;99668.38;5092785;28;20007;-73
2022/04/26 14:05:55;;;;;;;;;;;;;;;15.25;100.00;99663.16;5093081;28;19924;-77
2022/04/26 14:08:21;;;;;;;;;;;;;;;15.09;100.00;99672.38;5093147;28;19924;-77
2022/04/26 14:10:48;;;;;;;;;;;;;;;15.04;100.00;99681.34;5094276;28;19931;-78
2022/04/26 14:13:16;;;;;;;;;;;;;;;14.98;100.00;99685.13;5094303;28;19928;-78
2022/04/26 14:24:04;;;;;;;;;;;;;;;14.01;100.00;99710.09;5094214;28;19974;-77
2022/04/26 14:26:31;;;;;;;;;;;;;;;13.92;100.00;99706.25;5109864;28;20383;-78
2022/04/26 14:28:57;;;;;;;;;;;;;;;13.75;100.00;99704.59;5094053;28;20370;-77
2022/04/26 14:31:24;;;;;;;;;;;;;;;14.20;100.00;99694.47;5092600;28;19931;-77
2022/04/26 14:33:51;;;;;;;;;;;;;;;14.91;100.00;99700.16;5092243;28;19930;-77
2022/04/26 14:36:18;;;;;;;;;;;;;;;15.01;100.00;99692.72;5092739;28;19970;-77
2022/04/26 14:38:50;;;;;;;;;;;;;;;14.64;100.00;99702.41;5092754;28;20045;-77
2022/04/26 14:41:17;;;;;;;;;;;;;;;14.45;100.00;99700.38;5093842;28;19928;-77
2022/04/26 14:43:44;;;;;;;;;;;;;;;14.32;100.00;99699.47;5093825;28;19924;-77
2022/04/26 14:46:11;;;;;;;;;;;;;;;14.55;100.00;99695.78;5092543;28;20014;-77
2022/04/26 14:48:38;;;;;;;;;;;;;;;13.96;100.00;99693.75;5092497;28;19931;-77
2022/04/26 14:51:05;;;;;;;;;;;;;;;14.77;100.00;99699.72;5092671;28;19977;-77
2022/04/26 14:53:33;;;;;;;;;;;;;;;14.53;100.00;99690.56;5092816;28;20407;-77
2022/04/26 14:56:09;;;;;;;;;;;;;;;14.42;100.00;99690.00;5070062;28;19929;-78
2022/04/26 14:58:52;;;;;;;;;;;;;;;14.09;100.00;99693.91;5071696;28;19925;-77
2022/04/26 15:01:19;;;;;;;;;;;;;;;14.80;100.00;99688.34;5071517;28;19932;-77
2022/04/26 15:03:46;;;;;;;;;;;;;;;14.63;100.00;99686.72;5071749;28;19928;-77
2022/04/26 15:06:13;;;;;;;;;;;;;;;14.67;100.00;99684.66;5089138;28;20037;-77
2022/04/26 15:11:26;;;;;;;;;;;;;;;14.19;100.00;99692.91;5074992;28;20049;-78
2022/04/26 15:16:38;;;;;;;;;;;;;;;13.82;100.00;99701.66;5075936;28;19966;-77
2022/04/26 15:19:06;;;;;;;;;;;;;;;13.90;100.00;99709.50;5092688;28;19931;-77
2022/04/26 15:21:33;;;;;;;;;;;;;;;13.97;100.00;99708.59;5075812;28;20445;-77
2022/04/26 15:24:00;;;;;;;;;;;;;;;14.45;100.00;99706.00;5077212;28;19966;-76
2022/04/26 15:26:27;;;;;;;;;;;;;;;14.10;100.00;99701.13;5092768;28;19939;-78
2022/04/26 15:28:55;;;;;;;;;;;;;;;14.18;100.00;99700.53;5094286;28;20313;-78
2022/04/26 15:31:22;;;;;;;;;;;;;;;13.95;100.00;99702.63;5095873;28;19924;-77
2022/04/26 15:33:50;;;;;;;;;;;;;;;13.55;100.00;99700.97;5078969;28;19930;-77
2022/04/26 15:36:18;;;;;;;;;;;;;;;13.95;100.00;99699.81;5097142;28;19924;-77
2022/04/26 15:38:45;;;;;;;;;;;;;;;13.82;100.00;99701.66;5097012;28;20435;-77
2022/04/26 15:41:13;;;;;;;;;;;;;;;14.25;100.00;99691.19;5097088;28;19931;-78
2022/04/26 15:43:40;;;;;;;;;;;;;;;14.37;100.00;99702.56;5097159;28;19924;-77
2022/04/26 15:46:14;;;;;;;;;;;;;;;14.39;100.00;99696.50;5093894;28;19963;-77
2022/04/26 15:48:47;;;;;;;;;;;;;;;13.76;100.00;99697.75;5094465;28;19928;-77
2022/04/26 15:51:16;;;;;;;;;;;;;;;14.01;100.00;99686.84;5095666;28;19931;-77
2022/04/26 15:53:46;;;;;;;;;;;;;;;14.17;100.00;99693.34;5094812;28;20401;-77
2022/04/26 15:56:14;;;;;;;;;;;;;;;13.82;100.00;99696.03;5095573;28;19924;-77
2022/04/26 15:58:41;;;;;;;;;;;;;;;14.18;100.00;99692.09;5095258;28;19967;-78
2022/04/26 16:01:09;;;;;;;;;;;;;;;14.92;100.00;99696.09;5095369;28;19924;-77
2022/04/26 16:03:36;;;;;;;;;;;;;;;15.06;100.00;99697.78;5095597;28;20361;-77
2022/04/26 16:06:03;;;;;;;;;;;;;;;14.58;100.00;99701.31;5096702;28;20347;-77
2022/04/26 16:08:35;;;;;;;;;;;;;;;14.65;100.00;99700.34;5096637;28;20015;-77
2022/04/26 16:22:09;;;;;;;;;;;;;;;14.22;100.00;99704.03;5096569;28;19924;-77
2022/04/26 16:24:38;;;;;;;;;;;;;;;14.17;100.00;99724.25;5095993;28;20015;-76
2022/04/26 16:27:12;;;;;;;;;;;;;;;13.99;100.00;99725.81;5079623;28;19951;-76
2022/04/26 16:29:40;;;;;;;;;;;;;;;13.90;100.00;99731.19;5096025;28;19930;-76
2022/04/26 16:32:07;;;;;;;;;;;;;;;13.88;100.00;99728.03;5096112;28;20301;-76
2022/04/26 16:34:36;;;;;;;;;;;;;;;13.70;100.00;99724.75;5094962;28;19928;-76
2022/04/26 16:37:03;;;;;;;;;;;;;;;13.79;100.00;99733.41;5093217;28;19977;-76
2022/04/26 16:39:31;;;;;;;;;;;;;;;13.23;100.00;99738.00;5093788;28;19927;-76
2022/04/26 16:41:58;;;;;;;;;;;;;;;13.27;100.00;99733.09;5090694;28;20036;-76
2022/04/26 16:44:25;;;;;;;;;;;;;;;14.20;100.00;99734.63;5094686;28;19954;-77
2022/04/26 16:46:52;;;;;;;;;;;;;;;13.79;100.00;99725.78;5088301;28;19963;-77
2022/04/26 16:49:19;;;;;;;;;;;;;;;14.18;100.00;99736.25;5086897;28;19931;-77
2022/04/26 16:51:45;;;;;;;;;;;;;;;14.00;100.00;99733.00;5095888;28;20011;-76
2022/04/26 16:54:14;;;;;;;;;;;;;;;14.21;100.00;99730.59;5093703;28;19924;-76
2022/04/26 16:56:44;;;;;;;;;;;;;;;14.05;100.00;99744.56;5094003;28;19924;-76
2022/04/26 16:59:13;;;;;;;;;;;;;;;13.36;100.00;99741.00;5090573;28;20015;-76
2022/04/26 17:01:41;;;;;;;;;;;;;;;13.37;100.00;99753.81;5094652;28;19931;-76
2022/04/26 17:04:12;;;;;;;;;;;;;;;13.20;100.00;99760.47;5095658;28;19925;-76
2022/04/26 17:06:39;;;;;;;;;;;;;;;13.38;100.00;99756.19;5094574;28;19925;-76
2022/04/26 17:09:07;;;;;;;;;;;;;;;13.75;100.00;99761.56;5095677;28;19932;-76
2022/04/26 17:11:44;;;;;;;;;;;;;;;13.37;100.00;99753.81;5095846;28;19924;-77
2022/04/26 17:14:15;;;;;;;;;;;;;;;13.66;100.00;99760.53;5095365;28;20363;-77